Lerna, Illinois
Current Conditions -  °F | °C
As of 10:53 PM on Saturday 22 Nov 2014 (Local Time) from KMTO Reporting Station
Light Rain Light Rain  
Wind Chill: 45°   Ceiling: 8000
Heat Index: 49°   Visibility: 10mi
Dew Point: 46°   Wind: 9mph
Humidity: 90%   Direction: 150°SSE
Pressure: 29.92"   Gusts: NA
Location:  39.42°N, 88.29°W
Report Text: KMTO 230453Z AUTO 15008KT 10SM -RA FEW050 BKN080 OVC095 09/08 A2992 RMK AO2 SLP132 P0001 T00940078
Loading
Personal Weather Stations






























Interactive Weather Map New forecast layout! Learn more

10-Day Weather Forecast

Advertisements
Track Severe Weather on mobile